Time;durP1;ratioP1;P1;durP2;ratioP2;P2;SDS_P1;SDS_P2;PMS_P1;PMS_P2;Temp;Humidity;BMP_temperature;BMP_pressure;BME280_temperature;BME280_humidity;BME280_pressure;Samples;Min_cycle;Max_cycle;Signal;HPM_P1;HPM_P2
2023/03/21 00:00:58;;;;;;;62.80;29.70;;;;;;;4.15;92.91;101035.64;107363;1244;59038;-74
2023/03/21 00:03:27;;;;;;;62.60;29.60;;;;;;;4.07;91.54;101028.38;107418;1242;62141;-71
2023/03/21 00:05:56;;;;;;;64.30;31.00;;;;;;;4.29;91.99;101028.52;107399;1245;71771;-70
2023/03/21 00:08:26;;;;;;;68.00;31.00;;;;;;;4.51;90.00;101028.28;107341;1245;70405;-71
2023/03/21 00:11:00;;;;;;;65.10;30.50;;;;;;;4.40;89.71;101027.05;107410;1245;73907;-71
2023/03/21 00:13:37;;;;;;;69.20;30.10;;;;;;;4.25;89.93;101023.33;107390;1245;58969;-71
2023/03/21 00:16:15;;;;;;;64.60;28.50;;;;;;;4.17;90.43;101022.80;107441;1245;59024;-71
2023/03/21 00:18:51;;;;;;;67.10;30.00;;;;;;;4.16;91.36;101013.36;107503;1244;61272;-70
2023/03/21 00:21:31;;;;;;;63.40;30.00;;;;;;;4.23;91.76;101002.06;107463;1245;60884;-73
2023/03/21 00:24:21;;;;;;;64.00;29.70;;;;;;;4.36;91.14;100996.16;107403;1245;59456;-73
2023/03/21 00:26:50;;;;;;;66.50;31.10;;;;;;;4.43;90.92;100996.73;107396;1245;62783;-72
2023/03/21 00:29:19;;;;;;;59.40;29.80;;;;;;;4.46;91.04;101001.75;107455;1245;58966;-74
2023/03/21 00:31:48;;;;;;;65.70;31.10;;;;;;;4.50;90.79;101003.48;107427;1245;61131;-72
2023/03/21 00:34:17;;;;;;;68.90;32.20;;;;;;;4.44;90.56;101001.33;107470;1255;62257;-72
2023/03/21 00:37:06;;;;;;;70.90;33.70;;;;;;;4.33;90.73;101003.19;107509;1245;61022;-74
2023/03/21 00:39:35;;;;;;;70.70;33.80;;;;;;;4.23;92.03;101001.17;107513;1255;69851;-75
2023/03/21 00:42:04;;;;;;;67.10;31.30;;;;;;;4.27;92.44;100996.69;107428;1255;63698;-72
2023/03/21 00:44:35;;;;;;;68.50;30.80;;;;;;;4.44;91.97;100999.63;107415;1245;59033;-73
2023/03/21 00:47:06;;;;;;;68.40;32.50;;;;;;;4.50;91.48;100999.71;107516;1245;59000;-73
2023/03/21 00:49:37;;;;;;;69.00;32.40;;;;;;;4.65;91.73;100996.98;107457;1242;71826;-72
2023/03/21 00:52:09;;;;;;;64.20;31.90;;;;;;;4.70;90.68;100996.23;107391;1255;70881;-72
2023/03/21 00:54:58;;;;;;;70.00;33.10;;;;;;;4.66;90.80;100994.02;107410;1245;59965;-73
2023/03/21 00:57:28;;;;;;;66.40;32.80;;;;;;;4.76;90.65;100996.33;107504;1245;74823;-73
2023/03/21 01:00:09;;;;;;;69.50;33.30;;;;;;;4.77;90.10;100997.34;107482;1245;61155;-72
2023/03/21 01:03:13;;;;;;;62.10;31.50;;;;;;;4.79;90.56;100993.80;107492;1245;57524;-71
2023/03/21 01:06:05;;;;;;;68.50;32.80;;;;;;;4.84;90.49;100990.30;107443;1242;72688;-71
2023/03/21 01:08:42;;;;;;;61.50;30.60;;;;;;;4.83;89.94;100979.99;107386;1245;61249;-70
2023/03/21 01:11:24;;;;;;;63.70;31.00;;;;;;;4.78;89.93;100982.63;107411;1245;60514;-73
2023/03/21 01:13:54;;;;;;;65.40;33.10;;;;;;;4.80;90.36;100985.27;107362;1246;63612;-75
2023/03/21 01:16:44;;;;;;;63.80;30.90;;;;;;;4.86;90.44;100978.10;107211;1248;59043;-73
2023/03/21 01:19:17;;;;;;;69.00;32.20;;;;;;;4.95;90.24;100977.39;107330;1245;60212;-75
2023/03/21 01:21:56;;;;;;;65.50;31.20;;;;;;;4.97;89.61;100979.37;107425;1245;62965;-73
2023/03/21 01:24:26;;;;;;;66.40;31.20;;;;;;;4.89;90.29;100979.20;107393;1241;72229;-73
2023/03/21 01:26:55;;;;;;;66.90;32.80;;;;;;;4.89;90.47;100980.08;107442;1245;70328;-75
2023/03/21 01:29:24;;;;;;;70.70;33.00;;;;;;;4.81;90.01;100978.02;107373;1255;71145;-76
2023/03/21 01:31:54;;;;;;;73.70;32.80;;;;;;;4.71;91.44;100981.73;107436;1242;59454;-74
2023/03/21 01:34:23;;;;;;;57.60;26.20;;;;;;;4.70;91.22;100982.42;107443;1245;59051;-71
2023/03/21 01:36:52;;;;;;;59.10;25.90;;;;;;;4.66;88.95;100982.95;107372;1255;72743;-72
2023/03/21 01:39:21;;;;;;;59.60;26.90;;;;;;;4.44;88.98;100984.95;107417;1243;71848;-72
2023/03/21 01:41:51;;;;;;;55.50;27.80;;;;;;;4.22;89.39;100986.92;107424;1241;70352;-73
2023/03/21 01:44:25;;;;;;;58.50;28.50;;;;;;;4.01;90.08;100975.35;107450;1246;72901;-72
2023/03/21 01:46:55;;;;;;;61.40;29.40;;;;;;;3.91;91.20;100970.09;107605;1245;60959;-71
2023/03/21 01:50:24;;;;;;;65.70;31.20;;;;;;;3.94;92.39;100963.42;107230;1245;59189;-71
2023/03/21 01:53:03;;;;;;;61.90;30.50;;;;;;;4.18;92.66;100957.95;107332;1245;62436;-72
2023/03/21 01:55:36;;;;;;;57.80;29.30;;;;;;;4.33;91.39;100955.41;107312;1252;60774;-71
2023/03/21 01:58:25;;;;;;;63.40;30.30;;;;;;;4.46;90.89;100957.09;107156;1244;70711;-72
2023/03/21 02:01:09;;;;;;;59.00;29.80;;;;;;;4.63;90.74;100958.42;107310;1245;74089;-72
2023/03/21 02:03:50;;;;;;;62.70;30.10;;;;;;;4.88;89.81;100958.35;107448;1246;61480;-75
2023/03/21 02:06:45;;;;;;;59.60;29.70;;;;;;;4.85;88.82;100951.25;107296;1245;61811;-71
2023/03/21 02:09:34;;;;;;;60.80;30.30;;;;;;;4.96;89.05;100958.71;107424;1242;73991;-73
2023/03/21 02:12:03;;;;;;;61.40;30.30;;;;;;;4.91;88.68;100963.57;107404;1244;61509;-74
2023/03/21 02:14:34;;;;;;;63.40;31.00;;;;;;;4.82;88.92;100964.98;107315;1245;59474;-73
2023/03/21 02:17:51;;;;;;;65.70;32.10;;;;;;;4.75;90.56;100964.30;107394;1255;64222;-72
2023/03/21 02:20:49;;;;;;;67.20;32.60;;;;;;;4.75;91.51;100961.88;108479;1244;61330;-73
2023/03/21 02:24:06;;;;;;;73.20;33.40;;;;;;;4.90;91.57;100962.08;108166;1239;61199;-75
2023/03/21 02:27:17;;;;;;;56.80;31.30;;;;;;;4.87;91.62;100962.39;107923;1247;63133;-73
2023/03/21 02:30:13;;;;;;;64.80;30.80;;;;;;;4.82;92.23;100958.97;107891;1239;60882;-77
2023/03/21 02:33:25;;;;;;;65.80;32.80;;;;;;;4.82;92.12;100954.84;107729;1247;59224;-76
2023/03/21 02:36:50;;;;;;;68.60;33.10;;;;;;;4.81;91.95;100957.45;107756;1247;62729;-75
2023/03/21 02:39:39;;;;;;;65.90;31.10;;;;;;;4.85;91.49;100962.66;107782;1239;62477;-74
2023/03/21 02:42:33;;;;;;;65.70;33.10;;;;;;;4.81;92.01;100964.55;107776;1235;61405;-73
2023/03/21 02:45:25;;;;;;;66.60;31.80;;;;;;;4.89;92.62;100954.71;107818;1235;62608;-73
2023/03/21 02:48:10;;;;;;;66.20;34.10;;;;;;;4.83;92.45;100943.73;107845;1245;61078;-71
2023/03/21 02:50:58;;;;;;;66.70;33.20;;;;;;;4.95;92.34;100938.36;107839;1246;59914;-75
2023/03/21 02:53:33;;;;;;;72.10;35.70;;;;;;;5.01;91.62;100934.13;107543;1247;73776;-72
2023/03/21 02:56:09;;;;;;;71.90;38.10;;;;;;;5.04;91.41;100926.73;107750;1238;60899;-72
2023/03/21 02:58:43;;;;;;;68.00;35.40;;;;;;;5.03;91.33;100933.36;107835;1247;61334;-72
2023/03/21 03:01:12;;;;;;;70.40;37.10;;;;;;;5.04;91.24;100932.27;107831;1239;62688;-73
2023/03/21 03:03:47;;;;;;;77.50;36.30;;;;;;;5.00;91.37;100927.76;107908;1241;71763;-74
2023/03/21 03:06:55;;;;;;;74.80;38.20;;;;;;;4.99;91.62;100921.96;107878;1239;62398;-76
2023/03/21 03:09:59;;;;;;;77.20;36.70;;;;;;;5.12;90.99;100924.67;107845;1235;72342;-78
2023/03/21 03:12:56;;;;;;;73.80;38.40;;;;;;;5.17;90.87;100928.77;107815;1239;58991;-76
2023/03/21 03:16:05;;;;;;;69.40;35.40;;;;;;;5.14;91.15;100932.15;107775;1247;60440;-75
2023/03/21 03:18:55;;;;;;;69.30;36.30;;;;;;;5.19;91.23;100929.83;107868;1235;63852;-75
2023/03/21 03:21:39;;;;;;;68.80;35.80;;;;;;;5.21;90.68;100926.85;107933;1246;60923;-73
2023/03/21 03:24:19;;;;;;;70.20;36.10;;;;;;;5.30;90.87;100922.60;107901;1247;59281;-74
2023/03/21 03:27:16;;;;;;;74.00;37.20;;;;;;;5.33;90.43;100926.77;107873;1242;73585;-74
2023/03/21 03:29:48;;;;;;;74.00;37.60;;;;;;;5.32;90.89;100918.34;107851;1239;58963;-74
2023/03/21 03:32:35;;;;;;;72.30;36.80;;;;;;;5.36;90.59;100918.02;107898;1239;59042;-75
2023/03/21 03:35:06;;;;;;;68.40;35.30;;;;;;;5.28;90.58;100921.15;107879;1239;63053;-73
2023/03/21 03:37:39;;;;;;;68.20;33.60;;;;;;;5.19;91.22;100926.92;107965;1247;72102;-75
2023/03/21 03:40:39;;;;;;;71.30;34.70;;;;;;;5.11;92.21;100922.44;107841;1247;70183;-74
2023/03/21 03:43:23;;;;;;;75.30;35.10;;;;;;;5.09;92.07;100917.89;107899;1239;62830;-75
2023/03/21 03:45:59;;;;;;;68.70;34.30;;;;;;;5.08;92.57;100911.38;107786;1240;61255;-75
2023/03/21 03:48:50;;;;;;;67.50;34.80;;;;;;;5.08;92.34;100911.56;107874;1239;60559;-76
2023/03/21 03:51:42;;;;;;;76.90;37.30;;;;;;;5.09;93.02;100911.66;108004;1235;73278;-74
2023/03/21 03:54:43;;;;;;;70.10;34.70;;;;;;;5.25;92.53;100915.94;107980;1239;71985;-76
2023/03/21 03:57:12;;;;;;;75.00;36.60;;;;;;;5.20;92.03;100910.13;107987;1239;70367;-74
2023/03/21 03:59:45;;;;;;;74.80;36.50;;;;;;;5.20;92.85;100907.70;107784;1247;62937;-70
2023/03/21 04:02:24;;;;;;;71.10;37.00;;;;;;;5.23;92.38;100906.19;108030;1238;62803;-74
2023/03/21 04:04:56;;;;;;;71.60;36.20;;;;;;;5.29;92.21;100907.96;108027;1245;57374;-73
2023/03/21 04:07:26;;;;;;;66.00;32.90;;;;;;;5.27;91.78;100908.58;108028;1247;62074;-77
2023/03/21 04:09:58;;;;;;;65.60;34.50;;;;;;;5.25;92.06;100911.10;107963;1239;71550;-73
2023/03/21 04:12:27;;;;;;;69.90;33.60;;;;;;;5.23;92.35;100914.84;108022;1247;69995;-74
2023/03/21 04:15:18;;;;;;;74.00;34.40;;;;;;;5.25;92.41;100913.71;108018;1239;62609;-74
2023/03/21 04:17:51;;;;;;;75.10;34.80;;;;;;;5.24;91.75;100919.61;107941;1246;59106;-75
2023/03/21 04:20:20;;;;;;;67.00;33.60;;;;;;;5.11;91.36;100921.94;107990;1238;59065;-74
2023/03/21 04:23:06;;;;;;;67.30;34.80;;;;;;;4.94;92.59;100923.39;107999;1247;62400;-75
2023/03/21 04:25:36;;;;;;;72.00;35.10;;;;;;;4.98;93.16;100923.57;107987;1245;60872;-75
2023/03/21 04:28:20;;;;;;;67.10;32.40;;;;;;;4.94;92.13;100925.83;107835;1248;59981;-73
2023/03/21 04:30:59;;;;;;;69.10;34.40;;;;;;;4.83;92.24;100925.45;107956;1238;62658;-73
2023/03/21 04:33:44;;;;;;;68.60;33.60;;;;;;;4.73;93.42;100926.92;108014;1239;61962;-73
2023/03/21 04:36:23;;;;;;;75.50;36.90;;;;;;;4.85;93.12;100922.77;107901;1239;60748;-79
2023/03/21 04:38:55;;;;;;;70.10;33.40;;;;;;;4.87;92.54;100925.81;107871;1244;72586;-76
2023/03/21 04:41:25;;;;;;;65.90;30.10;;;;;;;4.88;92.88;100925.57;107872;1237;72753;-77
2023/03/21 04:43:55;;;;;;;67.10;32.40;;;;;;;4.86;93.04;100931.35;107902;1248;69251;-73
2023/03/21 04:46:24;;;;;;;65.00;30.70;;;;;;;4.87;93.47;100929.92;108451;1236;73468;-75
2023/03/21 04:48:53;;;;;;;63.30;30.80;;;;;;;4.88;93.83;100930.23;107994;1239;59014;-76
2023/03/21 04:51:22;;;;;;;63.90;30.90;;;;;;;4.92;93.56;100928.52;107978;1248;60728;-77
2023/03/21 04:53:51;;;;;;;62.70;31.40;;;;;;;4.98;94.09;100927.70;107965;1239;73268;-73
2023/03/21 04:56:20;;;;;;;71.90;33.60;;;;;;;5.08;93.69;100923.46;107969;1241;71043;-77
2023/03/21 04:58:50;;;;;;;68.30;31.60;;;;;;;5.23;93.21;100922.23;108051;1248;59796;-77
2023/03/21 05:01:19;;;;;;;78.90;39.50;;;;;;;5.21;92.89;100921.62;108128;1239;63529;-82
2023/03/21 05:03:48;;;;;;;65.90;32.60;;;;;;;5.25;92.72;100928.88;108143;1235;61724;-81
2023/03/21 05:06:17;;;;;;;63.40;32.00;;;;;;;5.42;92.03;100929.48;108235;1240;60532;-81
2023/03/21 05:08:46;;;;;;;60.70;33.00;;;;;;;5.48;91.89;100930.05;108142;1240;62981;-76
2023/03/21 05:11:15;;;;;;;63.20;32.20;;;;;;;5.55;91.23;100930.73;108091;1240;62316;-81
2023/03/21 05:13:45;;;;;;;65.50;33.20;;;;;;;5.59;90.81;100926.42;108042;1239;68339;-78
2023/03/21 05:16:14;;;;;;;67.50;33.60;;;;;;;5.70;90.80;100923.48;108080;1238;73547;-79
2023/03/21 05:18:44;;;;;;;62.90;32.10;;;;;;;5.75;90.34;100920.64;108035;1238;59309;-76
2023/03/21 05:21:18;;;;;;;63.70;33.00;;;;;;;5.82;90.05;100922.71;108058;1246;57460;-77
2023/03/21 05:23:53;;;;;;;61.90;31.70;;;;;;;5.86;89.68;100925.27;107965;1240;63036;-75
2023/03/21 05:26:22;;;;;;;64.10;30.80;;;;;;;5.89;89.89;100922.89;108079;1238;71510;-73
2023/03/21 05:29:05;;;;;;;56.80;31.10;;;;;;;6.00;89.18;100922.85;108020;1239;60338;-75
2023/03/21 05:31:35;;;;;;;61.30;32.40;;;;;;;6.10;89.14;100924.61;107897;1247;73881;-75
2023/03/21 05:34:07;;;;;;;61.10;33.90;;;;;;;6.17;88.79;100926.89;108000;1239;57633;-73
2023/03/21 05:36:37;;;;;;;62.80;31.20;;;;;;;6.17;88.58;100926.52;108014;1239;60919;-78
2023/03/21 05:39:08;;;;;;;66.70;33.20;;;;;;;6.25;88.41;100927.98;108006;1235;73258;-79
2023/03/21 05:41:40;;;;;;;64.40;31.40;;;;;;;6.33;87.92;100930.69;108231;1238;61184;-76
2023/03/21 05:44:10;;;;;;;63.80;32.20;;;;;;;6.49;87.08;100931.08;107973;1247;59793;-77
2023/03/21 05:46:39;;;;;;;62.00;31.80;;;;;;;6.52;86.74;100933.55;107973;1239;73017;-76
2023/03/21 05:49:10;;;;;;;59.80;32.50;;;;;;;6.42;86.90;100933.53;108104;1238;62199;-77
2023/03/21 05:51:39;;;;;;;71.20;33.00;;;;;;;6.46;86.87;100930.89;108093;1238;59871;-74
2023/03/21 05:54:08;;;;;;;74.20;34.10;;;;;;;6.42;87.16;100931.48;107910;1247;74026;-77
2023/03/21 05:56:37;;;;;;;67.00;31.90;;;;;;;6.46;87.18;100933.17;108069;1247;71739;-78
2023/03/21 05:59:08;;;;;;;61.50;31.00;;;;;;;6.63;86.81;100928.14;108174;1247;69623;-78
2023/03/21 06:01:41;;;;;;;59.20;33.10;;;;;;;6.72;86.17;100925.91;108073;1239;73001;-76
2023/03/21 06:04:13;;;;;;;72.00;34.40;;;;;;;6.75;86.23;100927.83;108050;1238;59072;-78
2023/03/21 06:06:41;;;;;;;62.40;29.80;;;;;;;6.80;85.85;100928.25;108152;1247;60380;-77
2023/03/21 06:09:11;;;;;;;66.50;33.50;;;;;;;6.90;85.63;100928.94;107952;1241;74151;-76
2023/03/21 06:11:47;;;;;;;74.90;34.00;;;;;;;6.94;85.45;100928.39;108087;1241;72725;-77
2023/03/21 06:14:24;;;;;;;69.30;32.70;;;;;;;6.96;84.95;100925.83;108084;1238;60250;-76
2023/03/21 06:17:40;;;;;;;78.60;34.10;;;;;;;7.03;84.97;100930.85;108074;1239;73836;-78
2023/03/21 06:20:11;;;;;;;63.80;33.00;;;;;;;7.17;84.83;100925.56;108144;1238;60387;-77
2023/03/21 06:22:50;;;;;;;68.20;32.40;;;;;;;7.29;84.32;100924.77;108087;1237;58977;-78
2023/03/21 06:25:20;;;;;;;64.00;32.10;;;;;;;7.42;83.59;100928.33;107865;1244;62175;-76
2023/03/21 06:27:49;;;;;;;66.00;31.50;;;;;;;7.52;82.74;100926.39;108050;1247;72067;-76
2023/03/21 06:30:19;;;;;;;65.50;31.60;;;;;;;7.58;82.07;100926.61;107983;1238;70147;-77
2023/03/21 06:33:06;;;;;;;61.20;31.10;;;;;;;7.52;82.35;100923.80;107900;1240;73161;-76
2023/03/21 06:35:35;;;;;;;70.70;34.40;;;;;;;7.58;81.89;100926.05;107870;1239;59015;-76
2023/03/21 06:38:05;;;;;;;61.40;32.10;;;;;;;7.63;81.97;100926.77;108021;1236;59017;-79
2023/03/21 06:40:38;;;;;;;63.20;31.60;;;;;;;7.61;81.91;100926.27;107940;1235;72670;-78
2023/03/21 06:43:07;;;;;;;68.20;32.60;;;;;;;7.75;81.61;100924.08;107624;1235;72500;-78
2023/03/21 06:45:36;;;;;;;62.80;31.80;;;;;;;7.93;81.37;100922.33;107827;1247;70164;-77
2023/03/21 06:48:06;;;;;;;66.60;32.20;;;;;;;8.12;80.32;100920.89;108039;1235;73388;-77
2023/03/21 06:50:49;;;;;;;62.30;33.30;;;;;;;8.19;79.81;100923.94;108039;1238;59096;-76
2023/03/21 06:53:23;;;;;;;61.40;30.90;;;;;;;8.36;79.56;100928.33;107979;1241;60527;-78
2023/03/21 06:56:12;;;;;;;64.70;31.80;;;;;;;8.57;79.06;100928.46;108496;1238;74535;-78
2023/03/21 06:58:42;;;;;;;68.60;34.20;;;;;;;8.73;78.14;100927.14;108385;1245;62872;-76
2023/03/21 07:01:17;;;;;;;67.00;32.40;;;;;;;8.87;77.24;100927.68;107898;1235;70940;-78
2023/03/21 07:03:57;;;;;;;62.30;32.40;;;;;;;8.94;76.94;100925.00;108204;1242;62929;-78
2023/03/21 07:06:27;;;;;;;60.60;31.90;;;;;;;8.97;76.61;100927.60;108175;1239;59033;-77
2023/03/21 07:08:56;;;;;;;60.50;32.20;;;;;;;9.04;76.09;100926.64;108112;1246;60315;-78
2023/03/21 07:17:43;;;;;;;56.00;30.20;;;;;;;9.53;75.21;100918.46;104496;1277;600216;-80
2023/03/21 07:20:12;;;;;;;56.00;28.70;;;;;;;9.75;73.99;100916.48;106308;1258;58230;-82
2023/03/21 07:22:42;;;;;;;55.40;30.70;;;;;;;9.80;73.28;100914.98;107016;1249;60411;-79
2023/03/21 07:25:11;;;;;;;59.10;29.50;;;;;;;9.94;73.25;100918.76;107078;1247;71664;-76
2023/03/21 07:27:41;;;;;;;54.80;30.00;;;;;;;10.16;72.96;100918.13;106809;1251;60728;-78
2023/03/21 07:30:12;;;;;;;59.20;29.10;;;;;;;10.34;72.10;100920.75;106581;1254;342985;-74
2023/03/21 07:32:41;;;;;;;58.10;31.00;;;;;;;10.43;70.35;100917.17;107081;1257;73771;-77
2023/03/21 07:35:13;;;;;;;56.30;28.80;;;;;;;10.65;69.57;100918.29;107085;1250;57442;-77
2023/03/21 07:37:43;;;;;;;55.50;30.00;;;;;;;10.84;68.76;100921.99;107094;1248;60349;-77
2023/03/21 07:40:15;;;;;;;57.50;28.90;;;;;;;10.98;68.58;100921.70;107185;1244;69535;-75
2023/03/21 07:42:44;;;;;;;53.30;28.30;;;;;;;11.03;67.61;100923.27;107141;1251;72297;-76
2023/03/21 07:45:20;;;;;;;50.10;26.20;;;;;;;11.23;67.44;100924.46;107364;1248;70144;-75
2023/03/21 07:47:50;;;;;;;47.00;24.90;;;;;;;11.43;67.42;100921.44;107245;1249;74021;-79
2023/03/21 07:50:20;;;;;;;43.00;22.90;;;;;;;11.57;65.49;100922.20;107201;1246;58919;-76
2023/03/21 07:52:49;;;;;;;35.30;21.30;;;;;;;11.72;63.18;100921.48;107229;1245;61219;-77
2023/03/21 07:55:18;;;;;;;42.20;22.50;;;;;;;11.86;63.37;100918.48;107046;1247;72412;-74
2023/03/21 07:57:50;;;;;;;28.00;16.40;;;;;;;12.02;64.92;100916.95;107038;1245;71739;-76
2023/03/21 08:00:21;;;;;;;39.10;20.90;;;;;;;12.15;63.43;100917.52;107141;1248;59611;-77
2023/03/21 08:02:53;;;;;;;37.70;20.20;;;;;;;12.23;64.81;100917.11;107025;1245;72889;-76
2023/03/21 08:05:32;;;;;;;36.40;20.50;;;;;;;12.35;62.84;100917.23;107129;1245;60824;-74
2023/03/21 08:08:02;;;;;;;38.70;19.90;;;;;;;12.45;62.29;100915.08;107112;1248;61597;-76
2023/03/21 08:10:30;;;;;;;36.70;21.20;;;;;;;12.52;62.45;100914.19;107015;1248;73087;-76
2023/03/21 08:12:59;;;;;;;37.30;20.40;;;;;;;12.58;62.43;100909.55;107047;1255;61449;-76
2023/03/21 08:15:28;;;;;;;33.80;18.40;;;;;;;12.63;62.24;100907.23;107161;1249;59271;-74
2023/03/21 08:17:59;;;;;;;38.20;21.20;;;;;;;12.69;61.42;100914.23;107110;1248;63536;-76
2023/03/21 08:20:28;;;;;;;35.00;21.70;;;;;;;12.78;62.19;100914.59;107125;1253;58989;-75
2023/03/21 08:22:56;;;;;;;33.60;20.30;;;;;;;12.85;62.39;100911.14;107062;1257;58288;-74
2023/03/21 08:25:25;;;;;;;35.20;22.00;;;;;;;12.90;61.81;100915.77;107000;1248;62874;-76
2023/03/21 08:27:54;;;;;;;33.60;22.20;;;;;;;12.87;62.17;100916.52;107085;1249;72082;-79
2023/03/21 08:30:25;;;;;;;36.90;22.10;;;;;;;12.82;61.40;100911.34;106873;1252;60484;-78
2023/03/21 08:33:00;;;;;;;40.60;22.50;;;;;;;12.91;61.88;100912.67;107041;1256;73838;-76
2023/03/21 08:35:30;;;;;;;39.80;22.20;;;;;;;13.03;61.84;100910.73;107253;1248;59009;-78
2023/03/21 08:38:02;;;;;;;33.90;21.90;;;;;;;13.06;61.38;100908.73;107272;1244;57474;-78
2023/03/21 08:40:32;;;;;;;39.30;22.20;;;;;;;13.11;60.53;100909.02;107792;1246;62086;-76
2023/03/21 08:43:02;;;;;;;43.10;24.30;;;;;;;13.25;59.29;100908.11;107390;1246;60860;-77
2023/03/21 08:45:31;;;;;;;41.20;23.80;;;;;;;13.28;59.74;100914.83;107217;1244;59243;-75
2023/03/21 08:48:00;;;;;;;39.30;22.10;;;;;;;13.52;59.80;100913.12;107266;1248;73836;-80
2023/03/21 08:50:30;;;;;;;44.50;25.50;;;;;;;13.72;58.64;100912.70;107308;1257;61937;-78
2023/03/21 08:52:59;;;;;;;41.00;23.90;;;;;;;13.80;59.12;100912.91;107274;1248;59142;-75
2023/03/21 08:55:29;;;;;;;36.60;22.70;;;;;;;13.85;58.86;100912.30;107317;1248;69940;-78
2023/03/21 08:57:58;;;;;;;42.60;25.40;;;;;;;13.88;58.84;100908.20;107281;1244;74073;-76
2023/03/21 09:00:27;;;;;;;41.40;25.90;;;;;;;14.01;58.11;100911.30;107090;1250;70256;-77
2023/03/21 09:02:57;;;;;;;37.10;23.60;;;;;;;14.01;56.94;100910.08;107312;1248;63244;-74
2023/03/21 09:05:27;;;;;;;37.80;23.90;;;;;;;14.04;57.33;100905.98;107299;1248;57918;-79
2023/03/21 09:07:56;;;;;;;35.90;23.30;;;;;;;14.10;57.20;100903.41;107276;1257;61239;-76
2023/03/21 09:10:25;;;;;;;41.70;24.70;;;;;;;14.13;56.70;100900.75;107264;1248;61805;-79
2023/03/21 09:12:55;;;;;;;40.00;23.10;;;;;;;14.18;55.89;100901.88;107234;1257;70528;-78
2023/03/21 09:15:27;;;;;;;35.10;22.30;;;;;;;14.14;56.00;100898.35;107144;1249;70230;-77
2023/03/21 09:18:11;;;;;;;35.60;22.20;;;;;;;14.11;56.09;100896.81;109505;1244;63715;-77
2023/03/21 09:20:43;;;;;;;41.10;24.10;;;;;;;14.04;56.14;100891.15;109384;1248;59674;-78
2023/03/21 09:23:13;;;;;;;42.60;23.50;;;;;;;14.16;56.63;100895.71;109352;1244;57727;-77
2023/03/21 09:25:44;;;;;;;39.30;21.90;;;;;;;14.26;56.41;100900.14;109415;1244;62248;-76
2023/03/21 09:28:13;;;;;;;37.70;22.90;;;;;;;14.27;56.38;100901.77;109496;1244;61659;-77
2023/03/21 09:30:42;;;;;;;40.90;24.90;;;;;;;14.31;54.58;100898.59;109500;1244;59519;-77
2023/03/21 09:33:11;;;;;;;46.00;28.20;;;;;;;14.56;53.42;100894.55;109458;1244;73766;-77
2023/03/21 09:35:41;;;;;;;41.20;25.00;;;;;;;14.71;53.14;100891.21;109520;1248;60787;-79
2023/03/21 09:38:10;;;;;;;47.80;26.70;;;;;;;14.79;52.66;100893.84;109514;1244;57730;-79
2023/03/21 09:41:08;;;;;;;43.20;26.80;;;;;;;14.90;52.29;100891.68;109401;1244;62178;-77
2023/03/21 09:44:06;;;;;;;42.30;26.90;;;;;;;14.90;52.17;100899.20;109440;1244;61690;-78
2023/03/21 09:46:49;;;;;;;52.30;28.20;;;;;;;14.77;51.86;100897.12;109500;1244;59850;-79
2023/03/21 09:49:31;;;;;;;48.80;29.20;;;;;;;14.72;52.59;100892.02;109490;1244;62381;-76
2023/03/21 09:52:12;;;;;;;52.20;29.80;;;;;;;14.72;53.05;100893.59;109481;1247;57717;-77
2023/03/21 09:54:44;;;;;;;43.10;24.20;;;;;;;14.85;52.73;100894.70;109320;1244;57230;-78
2023/03/21 09:57:38;;;;;;;52.60;29.50;;;;;;;15.07;51.74;100890.48;109479;1244;61394;-80
2023/03/21 10:00:19;;;;;;;43.20;26.40;;;;;;;15.12;51.51;100885.84;109467;1244;60827;-76
2023/03/21 10:02:52;;;;;;;46.20;27.60;;;;;;;15.22;51.28;100886.88;109354;1244;60036;-81
2023/03/21 10:05:31;;;;;;;49.30;26.50;;;;;;;15.27;51.01;100888.55;109429;1244;62492;-79
2023/03/21 10:08:21;;;;;;;50.90;28.50;;;;;;;15.25;51.29;100883.45;109403;1247;57099;-76
2023/03/21 10:11:20;;;;;;;52.70;31.30;;;;;;;15.22;51.62;100889.73;109264;1244;57661;-79
2023/03/21 10:14:16;;;;;;;46.20;26.70;;;;;;;15.51;51.45;100885.83;109381;1245;73630;-77
2023/03/21 10:16:55;;;;;;;55.60;30.10;;;;;;;15.86;49.93;100881.64;109350;1244;72817;-78
2023/03/21 10:19:26;;;;;;;45.20;27.80;;;;;;;15.82;50.08;100883.03;109401;1244;60323;-76
2023/03/21 10:21:56;;;;;;;40.80;22.90;;;;;;;15.97;49.85;100884.82;109258;1244;63265;-76
2023/03/21 10:24:33;;;;;;;48.70;29.60;;;;;;;16.22;48.52;100879.48;109475;1245;57648;-78
2023/03/21 10:27:04;;;;;;;43.80;26.70;;;;;;;16.29;47.64;100878.72;109322;1247;57087;-76
2023/03/21 10:29:42;;;;;;;42.30;24.70;;;;;;;16.25;47.27;100877.29;109120;1244;72771;-76
2023/03/21 10:32:16;;;;;;;41.30;24.80;;;;;;;16.19;47.17;100877.67;109118;1245;61993;-76
2023/03/21 10:34:54;;;;;;;46.30;25.40;;;;;;;16.18;47.31;100870.79;109278;1244;58987;-78
2023/03/21 10:37:24;;;;;;;37.50;23.30;;;;;;;16.28;46.69;100870.01;109237;1244;64240;-76
2023/03/21 10:39:54;;;;;;;35.70;22.50;;;;;;;16.38;46.11;100867.98;109257;1247;57336;-78
2023/03/21 10:42:28;;;;;;;40.30;26.80;;;;;;;16.37;46.31;100862.13;109082;1248;57396;-79
2023/03/21 10:44:57;;;;;;;39.90;25.70;;;;;;;16.12;46.77;100863.59;109196;1246;71881;-75
2023/03/21 10:47:32;;;;;;;40.70;24.60;;;;;;;16.70;45.96;100860.08;109018;1247;61436;-80
2023/03/21 10:50:19;;;;;;;42.80;26.50;;;;;;;16.98;45.16;100858.96;109226;1246;69659;-79
2023/03/21 10:52:51;;;;;;;41.10;26.60;;;;;;;16.70;45.97;100858.67;108902;1248;74491;-78
2023/03/21 10:55:33;;;;;;;36.40;24.30;;;;;;;17.12;45.40;100857.77;109086;1249;61961;-78
2023/03/21 10:58:07;;;;;;;40.20;25.90;;;;;;;17.39;45.57;100857.20;109196;1247;61370;-79
2023/03/21 11:00:42;;;;;;;41.50;25.80;;;;;;;17.60;45.73;100855.10;109321;1245;71658;-79
2023/03/21 11:03:35;;;;;;;38.30;24.30;;;;;;;17.79;45.06;100851.96;109332;1244;72877;-76
2023/03/21 11:06:26;;;;;;;;;;;;;;;18.02;43.85;100853.08;109216;1244;70168;-77
2023/03/21 11:09:14;;;;;;;32.90;21.10;;;;;;;17.82;43.37;100852.55;109294;1245;63596;-76
2023/03/21 11:11:53;;;;;;;36.00;24.60;;;;;;;17.86;43.11;100848.98;109157;1244;60259;-77
2023/03/21 11:14:34;;;;;;;36.30;24.10;;;;;;;17.71;42.84;100844.85;109093;1247;57191;-78
2023/03/21 11:17:17;;;;;;;35.00;24.40;;;;;;;18.05;43.29;100844.05;109190;1244;72812;-75
2023/03/21 11:19:52;;;;;;;;;;;;;;;18.34;43.50;100837.82;109100;1247;73015;-77
2023/03/21 11:22:26;;;;;;;39.70;24.40;;;;;;;18.33;43.86;100832.43;109060;1246;59564;-78
2023/03/21 11:25:05;;;;;;;33.90;23.00;;;;;;;18.41;42.71;100832.66;109169;1247;73934;-76
2023/03/21 11:27:34;;;;;;;35.40;23.30;;;;;;;18.77;42.30;100828.75;109018;1247;61836;-79
2023/03/21 11:30:17;;;;;;;36.20;23.50;;;;;;;19.07;41.34;100830.17;109105;1249;57803;-78
2023/03/21 11:32:53;;;;;;;28.50;19.40;;;;;;;18.84;40.00;100826.06;109084;1247;71910;-78
2023/03/21 11:35:37;;;;;;;29.90;19.80;;;;;;;19.17;38.92;100818.52;109065;1247;70398;-78
2023/03/21 11:38:26;;;;;;;28.40;19.70;;;;;;;19.05;37.73;100816.77;109001;1247;71472;-76
2023/03/21 11:41:01;;;;;;;30.50;21.00;;;;;;;19.78;38.44;100809.27;108978;1247;74180;-78
2023/03/21 11:43:35;;;;;;;29.70;20.70;;;;;;;20.27;38.31;100807.54;108934;1244;60830;-78
2023/03/21 11:46:12;;;;;;;31.40;19.50;;;;;;;20.39;35.92;100808.30;109198;1248;57796;-77
2023/03/21 11:48:45;;;;;;;32.10;22.10;;;;;;;20.35;36.30;100803.59;109182;1245;73698;-78
2023/03/21 11:51:20;;;;;;;32.30;22.40;;;;;;;21.01;34.96;100801.06;109194;1246;62068;-80
2023/03/21 11:54:03;;;;;;;35.00;20.50;;;;;;;20.54;36.25;100801.80;109208;1245;70475;-78
2023/03/21 11:56:44;;;;;;;26.30;19.00;;;;;;;20.66;36.47;100800.15;109135;1244;74170;-79